Time;durP1;ratioP1;P1;durP2;ratioP2;P2;SDS_P1;SDS_P2;PMS_P1;PMS_P2;Temp;Humidity;BMP_temperature;BMP_pressure;BME280_temperature;BME280_humidity;BME280_pressure;Samples;Min_cycle;Max_cycle;Signal;HPM_P1;HPM_P2
2023/08/16 00:02:20;;;;;;;10.20;5.30;;;23.70;99.90;;;;;;5073891;28;20440;-71
2023/08/16 00:04:46;;;;;;;10.07;5.68;;;23.70;99.90;;;;;;5077710;28;20442;-71
2023/08/16 00:07:13;;;;;;;10.77;5.65;;;23.70;99.90;;;;;;5080370;28;20394;-71
2023/08/16 00:09:39;;;;;;;8.20;5.33;;;23.80;99.90;;;;;;5094658;27;21274;-71
2023/08/16 00:12:07;;;;;;;8.00;5.50;;;23.80;99.90;;;;;;5100926;27;20412;-72
2023/08/16 00:14:33;;;;;;;9.90;5.60;;;23.70;99.90;;;;;;5099991;28;20900;-72
2023/08/16 00:16:59;;;;;;;9.68;5.70;;;23.80;99.90;;;;;;5064324;28;20404;-72
2023/08/16 00:19:26;;;;;;;9.75;5.80;;;23.80;99.90;;;;;;5076873;28;20440;-72
2023/08/16 00:21:52;;;;;;;10.18;6.35;;;23.80;99.90;;;;;;5094990;27;20495;-72
2023/08/16 00:24:19;;;;;;;12.07;7.30;;;23.80;99.90;;;;;;5064079;27;20418;-72
2023/08/16 00:26:45;;;;;;;11.02;6.70;;;23.90;99.90;;;;;;5080690;28;20898;-72
2023/08/16 00:29:14;;;;;;;11.32;6.43;;;23.80;99.90;;;;;;5067573;27;20839;-72
2023/08/16 00:31:41;;;;;;;7.85;5.57;;;23.90;99.90;;;;;;5099491;27;20408;-72
2023/08/16 00:34:07;;;;;;;9.15;5.55;;;23.80;99.90;;;;;;5096458;28;20840;-72
2023/08/16 00:36:33;;;;;;;11.48;5.60;;;23.80;99.90;;;;;;5076194;28;20768;-72
2023/08/16 00:38:59;;;;;;;7.72;5.25;;;23.80;99.90;;;;;;5068016;27;20402;-72
2023/08/16 00:41:26;;;;;;;8.60;5.60;;;23.80;99.90;;;;;;5098040;27;20402;-72
2023/08/16 00:43:52;;;;;;;9.85;5.40;;;23.80;99.90;;;;;;5099159;27;20412;-72
2023/08/16 00:46:18;;;;;;;9.77;5.72;;;23.80;99.90;;;;;;5094546;27;20760;-72
2023/08/16 00:48:45;;;;;;;8.23;5.43;;;23.80;99.90;;;;;;5101143;27;20476;-72
2023/08/16 00:51:13;;;;;;;11.18;6.20;;;23.80;99.90;;;;;;5083798;27;20409;-72
2023/08/16 00:53:42;;;;;;;8.77;5.97;;;23.80;99.90;;;;;;5080071;28;20390;-72
2023/08/16 00:56:08;;;;;;;8.03;6.03;;;23.80;99.90;;;;;;5086790;28;20406;-72
2023/08/16 00:58:35;;;;;;;11.60;6.13;;;23.80;99.90;;;;;;5094257;28;20449;-72
2023/08/16 01:01:01;;;;;;;10.38;6.25;;;23.80;99.90;;;;;;5099217;28;20422;-71
2023/08/16 01:03:27;;;;;;;9.75;5.80;;;23.70;99.90;;;;;;5084411;28;20977;-71
2023/08/16 01:05:53;;;;;;;12.90;6.00;;;23.70;99.90;;;;;;5084988;28;20876;-71
2023/08/16 01:08:20;;;;;;;9.23;5.97;;;23.70;99.90;;;;;;5096659;28;20392;-71
2023/08/16 01:11:09;;;;;;;8.10;5.57;;;23.60;99.90;;;;;;5087067;28;20405;-71
2023/08/16 01:13:54;;;;;;;7.60;4.80;;;23.60;99.90;;;;;;5095362;27;20635;-71
2023/08/16 01:16:24;;;;;;;8.88;3.85;;;23.50;99.90;;;;;;5082905;28;20414;-71
2023/08/16 01:18:52;;;;;;;5.35;3.35;;;23.50;99.90;;;;;;5097818;28;20400;-71
2023/08/16 01:21:20;;;;;;;5.65;3.10;;;23.40;99.90;;;;;;5069497;28;20400;-71
2023/08/16 01:24:23;;;;;;;5.28;3.10;;;23.40;99.90;;;;;;5069386;27;20404;-71
2023/08/16 01:26:52;;;;;;;4.27;2.60;;;23.20;99.90;;;;;;5098303;28;20736;-71
2023/08/16 01:29:20;;;;;;;4.03;2.40;;;23.10;99.90;;;;;;5095362;28;21204;-71
2023/08/16 01:31:47;;;;;;;5.63;2.20;;;23.10;99.90;;;;;;5085427;28;20486;-71
2023/08/16 01:34:13;;;;;;;4.75;2.10;;;23.00;99.90;;;;;;5097532;28;20413;-71
2023/08/16 01:36:39;;;;;;;3.60;1.92;;;22.90;99.90;;;;;;5071482;28;20413;-71
2023/08/16 01:39:06;;;;;;;3.35;2.08;;;22.80;99.90;;;;;;5095267;28;22605;-72
2023/08/16 01:41:55;;;;;;;2.95;2.13;;;22.70;99.90;;;;;;5096435;28;20398;-72
2023/08/16 01:44:23;;;;;;;5.13;2.30;;;22.70;99.90;;;;;;5083086;28;20559;-72
2023/08/16 01:46:51;;;;;;;4.15;2.30;;;22.70;99.90;;;;;;5074032;28;20505;-72
2023/08/16 01:49:19;;;;;;;4.33;2.13;;;22.70;99.90;;;;;;5094922;27;20492;-72
2023/08/16 01:51:45;;;;;;;5.75;2.70;;;22.70;99.90;;;;;;5071956;28;20412;-71
2023/08/16 01:54:12;;;;;;;3.67;2.30;;;22.70;99.90;;;;;;5067376;28;20419;-72
2023/08/16 01:56:38;;;;;;;4.45;1.88;;;22.60;99.90;;;;;;5096690;27;21475;-72
2023/08/16 01:59:05;;;;;;;3.23;1.80;;;22.60;99.90;;;;;;5101537;27;20781;-72
2023/08/16 02:01:31;;;;;;;2.70;1.70;;;22.60;99.90;;;;;;5098768;28;20908;-73
2023/08/16 02:03:57;;;;;;;3.90;1.60;;;22.60;99.90;;;;;;5085216;28;20508;-73
2023/08/16 02:06:25;;;;;;;2.58;1.48;;;22.60;99.90;;;;;;5094156;27;20412;-73
2023/08/16 02:08:52;;;;;;;3.27;1.27;;;22.60;99.90;;;;;;5097116;27;20401;-73
2023/08/16 02:11:20;;;;;;;2.40;1.40;;;22.70;99.90;;;;;;5063098;28;20919;-73
2023/08/16 02:13:46;;;;;;;2.70;1.30;;;22.70;99.90;;;;;;5087748;28;21045;-73
2023/08/16 02:16:12;;;;;;;3.25;1.50;;;22.70;99.90;;;;;;5090642;28;21516;-73
2023/08/16 02:18:39;;;;;;;3.67;1.17;;;22.70;99.90;;;;;;5078814;28;20941;-75
2023/08/16 02:21:05;;;;;;;2.40;1.00;;;22.70;99.50;;;;;;5086255;28;20398;-74
2023/08/16 02:23:31;;;;;;;21.25;2.60;;;22.70;98.10;;;;;;5088098;27;20462;-73
2023/08/16 02:25:57;;;;;;;7.57;1.60;;;22.80;98.60;;;;;;5097486;28;20437;-73
2023/08/16 02:28:23;;;;;;;2.65;1.40;;;22.80;99.60;;;;;;5077790;28;20443;-73
2023/08/16 02:30:50;;;;;;;3.10;1.02;;;22.80;99.50;;;;;;5070104;28;20501;-74
2023/08/16 02:33:16;;;;;;;3.67;1.20;;;22.80;99.30;;;;;;5076149;28;20397;-74
2023/08/16 02:35:42;;;;;;;1.50;1.00;;;22.80;98.60;;;;;;5095320;28;20509;-74
2023/08/16 02:38:09;;;;;;;1.95;0.90;;;22.80;98.40;;;;;;5099940;27;20789;-74
2023/08/16 02:40:36;;;;;;;2.13;0.90;;;22.80;97.80;;;;;;5064700;28;20432;-74
2023/08/16 02:43:03;;;;;;;4.32;1.10;;;22.80;96.70;;;;;;5066908;28;20741;-74
2023/08/16 02:45:29;;;;;;;4.20;1.10;;;22.80;96.10;;;;;;5072858;28;20791;-73
2023/08/16 02:47:57;;;;;;;2.22;0.90;;;22.80;95.60;;;;;;5083623;28;20443;-74
2023/08/16 02:50:23;;;;;;;2.90;1.00;;;22.80;96.50;;;;;;5084849;28;21078;-74
2023/08/16 02:52:50;;;;;;;3.60;1.08;;;22.80;95.50;;;;;;5086740;28;20409;-74
2023/08/16 02:55:16;;;;;;;1.92;1.00;;;22.80;94.60;;;;;;5075003;28;20497;-74
2023/08/16 02:57:43;;;;;;;2.95;1.20;;;22.80;94.50;;;;;;5093315;28;20758;-74
2023/08/16 03:00:10;;;;;;;2.63;0.98;;;22.90;95.40;;;;;;5068970;28;20453;-73
2023/08/16 03:02:37;;;;;;;2.28;0.93;;;22.90;96.10;;;;;;5078103;28;20819;-73
2023/08/16 03:05:03;;;;;;;6.00;1.15;;;22.90;94.70;;;;;;5057424;28;20412;-74
2023/08/16 03:07:30;;;;;;;2.35;1.10;;;22.90;93.70;;;;;;5078470;28;20497;-74
2023/08/16 03:09:57;;;;;;;5.53;1.00;;;22.90;93.70;;;;;;5092029;28;20417;-74
2023/08/16 03:12:23;;;;;;;5.38;1.33;;;22.90;93.80;;;;;;5096329;27;20486;-74
2023/08/16 03:14:50;;;;;;;3.53;0.90;;;22.90;93.40;;;;;;5058281;28;20414;-74
2023/08/16 03:17:16;;;;;;;2.88;0.95;;;22.90;93.60;;;;;;5079820;28;20406;-74
2023/08/16 03:19:42;;;;;;;9.65;1.50;;;22.90;92.60;;;;;;5077573;28;20404;-74
2023/08/16 03:22:10;;;;;;;2.78;1.00;;;23.00;91.30;;;;;;5080556;28;20920;-73
2023/08/16 03:24:36;;;;;;;4.00;1.20;;;23.00;91.30;;;;;;5082782;28;20959;-73
2023/08/16 03:27:02;;;;;;;2.17;1.00;;;23.00;91.50;;;;;;5076372;28;20499;-74
2023/08/16 03:29:29;;;;;;;2.47;1.02;;;23.00;92.10;;;;;;5084667;28;21064;-74
2023/08/16 03:31:55;;;;;;;4.93;1.35;;;23.00;92.80;;;;;;5078602;28;20482;-73
2023/08/16 03:34:22;;;;;;;5.22;1.10;;;23.00;91.80;;;;;;5088302;28;20814;-73
2023/08/16 03:36:48;;;;;;;3.40;1.10;;;23.00;91.30;;;;;;5098205;28;20407;-73
2023/08/16 03:39:15;;;;;;;3.30;1.10;;;23.10;91.60;;;;;;5081830;28;20486;-73
2023/08/16 03:41:41;;;;;;;3.17;0.88;;;23.10;92.30;;;;;;5081538;28;20767;-73
2023/08/16 03:44:07;;;;;;;5.40;1.17;;;23.10;92.50;;;;;;5097826;28;20410;-73
2023/08/16 03:46:34;;;;;;;4.75;1.10;;;23.10;92.70;;;;;;5101281;28;20443;-73
2023/08/16 03:49:01;;;;;;;2.80;1.10;;;23.10;92.10;;;;;;5070136;28;20415;-73
2023/08/16 03:51:28;;;;;;;2.83;0.90;;;23.20;92.10;;;;;;5080921;28;20424;-73
2023/08/16 03:53:54;;;;;;;2.88;1.10;;;23.20;92.20;;;;;;5104472;27;20736;-73
2023/08/16 03:56:21;;;;;;;2.30;1.00;;;23.20;92.90;;;;;;5102962;27;20392;-73
2023/08/16 03:58:47;;;;;;;3.50;1.20;;;23.20;92.80;;;;;;5088087;28;20407;-73
2023/08/16 04:01:13;;;;;;;4.03;1.23;;;23.20;92.60;;;;;;5087529;27;20410;-73
2023/08/16 04:03:40;;;;;;;3.20;1.00;;;23.30;92.90;;;;;;5101853;28;20938;-73
2023/08/16 04:06:10;;;;;;;3.17;1.10;;;23.30;93.70;;;;;;5097776;28;20402;-73
2023/08/16 04:08:38;;;;;;;5.68;1.25;;;23.30;93.50;;;;;;5093741;27;20898;-73
2023/08/16 04:11:05;;;;;;;3.22;1.13;;;23.30;93.40;;;;;;5085717;28;20443;-73
2023/08/16 04:13:33;;;;;;;6.93;1.40;;;23.30;93.40;;;;;;5078195;28;20398;-73
2023/08/16 04:15:59;;;;;;;3.45;1.20;;;23.30;93.60;;;;;;5096461;28;20832;-73
2023/08/16 04:18:27;;;;;;;5.93;1.20;;;23.30;93.70;;;;;;5095057;27;20520;-73
2023/08/16 04:20:53;;;;;;;2.65;1.13;;;23.40;93.90;;;;;;5073313;28;20413;-73
2023/08/16 04:23:21;;;;;;;4.15;1.25;;;23.40;94.20;;;;;;5096886;27;20503;-73
2023/08/16 04:25:47;;;;;;;2.58;1.00;;;23.40;94.30;;;;;;5093929;27;20420;-73
2023/08/16 04:28:13;;;;;;;3.40;1.30;;;23.40;94.40;;;;;;5096369;27;20413;-73
2023/08/16 04:30:39;;;;;;;2.90;1.30;;;23.40;94.60;;;;;;5098286;27;21195;-73
2023/08/16 04:33:06;;;;;;;3.13;1.20;;;23.50;94.80;;;;;;5080582;28;20424;-73
2023/08/16 04:35:32;;;;;;;6.40;1.50;;;23.50;95.20;;;;;;5093579;28;20428;-73
2023/08/16 04:37:59;;;;;;;10.00;1.50;;;23.50;95.30;;;;;;5071247;28;20445;-73
2023/08/16 04:40:25;;;;;;;5.10;1.40;;;23.50;95.60;;;;;;5101430;27;20761;-73
2023/08/16 04:42:51;;;;;;;2.75;1.38;;;23.60;96.00;;;;;;5085202;27;20437;-73
2023/08/16 04:45:17;;;;;;;2.80;1.40;;;23.60;96.20;;;;;;5099324;27;20768;-73
2023/08/16 04:47:45;;;;;;;6.27;1.30;;;23.60;96.50;;;;;;5085424;28;20408;-73
2023/08/16 04:50:11;;;;;;;4.90;1.50;;;23.70;96.70;;;;;;5098113;28;20489;-74
2023/08/16 04:52:37;;;;;;;3.58;1.25;;;23.70;97.00;;;;;;5099598;28;20412;-73
2023/08/16 04:55:06;;;;;;;3.60;1.30;;;23.70;97.30;;;;;;5084462;28;20942;-73
2023/08/16 04:57:32;;;;;;;3.75;1.30;;;23.80;97.70;;;;;;5097007;28;21039;-74
2023/08/16 04:59:58;;;;;;;3.53;1.30;;;23.80;98.00;;;;;;5099064;28;20944;-74
2023/08/16 05:02:25;;;;;;;6.75;1.50;;;23.90;97.90;;;;;;5101853;27;20416;-74
2023/08/16 05:04:51;;;;;;;3.03;1.33;;;23.90;98.00;;;;;;5094721;27;20512;-74
2023/08/16 05:07:17;;;;;;;3.65;1.40;;;23.90;97.90;;;;;;5082881;28;20445;-74
2023/08/16 05:09:44;;;;;;;3.20;1.40;;;24.00;98.20;;;;;;5095208;27;20834;-74
2023/08/16 05:12:10;;;;;;;2.72;1.60;;;24.00;98.30;;;;;;5083467;27;20411;-73
2023/08/16 05:14:36;;;;;;;5.40;1.98;;;24.10;98.60;;;;;;5098735;27;20501;-74
2023/08/16 05:17:03;;;;;;;5.03;2.20;;;24.10;99.00;;;;;;5085642;28;21230;-74
2023/08/16 05:19:29;;;;;;;4.03;1.90;;;24.10;99.90;;;;;;5098770;28;20495;-73
2023/08/16 05:21:55;;;;;;;4.75;2.30;;;24.20;99.90;;;;;;5083752;28;20410;-74
2023/08/16 05:24:21;;;;;;;4.57;2.30;;;24.20;99.90;;;;;;5097019;27;20423;-73
2023/08/16 05:26:47;;;;;;;5.78;2.35;;;24.20;99.90;;;;;;5082193;28;20404;-73
2023/08/16 05:29:14;;;;;;;4.25;2.10;;;24.30;99.90;;;;;;5096095;27;20415;-73
2023/08/16 05:31:41;;;;;;;4.35;2.00;;;24.30;99.90;;;;;;5100414;28;20418;-73
2023/08/16 05:34:11;;;;;;;3.72;2.30;;;24.30;99.90;;;;;;5079823;27;20727;-73
2023/08/16 05:36:47;;;;;;;5.30;2.30;;;24.40;99.90;;;;;;5073003;28;21065;-73
2023/08/16 05:39:14;;;;;;;3.90;2.20;;;24.40;99.90;;;;;;5098689;27;20417;-73
2023/08/16 05:41:41;;;;;;;3.85;2.10;;;24.50;99.90;;;;;;5082620;28;20400;-73
2023/08/16 05:44:07;;;;;;;3.97;2.50;;;24.50;99.90;;;;;;5097792;27;20408;-73
2023/08/16 05:46:33;;;;;;;4.90;2.53;;;24.50;99.90;;;;;;5101966;27;20607;-73
2023/08/16 05:49:00;;;;;;;7.32;3.00;;;24.60;99.90;;;;;;5097044;28;20448;-73
2023/08/16 05:51:27;;;;;;;5.78;3.30;;;24.60;99.90;;;;;;5098755;27;20412;-73
2023/08/16 05:53:53;;;;;;;6.75;3.20;;;24.70;99.90;;;;;;5081529;28;20954;-73
2023/08/16 05:56:20;;;;;;;8.70;4.00;;;24.80;99.90;;;;;;5080324;28;20400;-73
2023/08/16 05:58:46;;;;;;;7.15;3.67;;;24.90;99.90;;;;;;5081921;28;20404;-73
2023/08/16 06:01:12;;;;;;;6.65;3.15;;;24.90;99.90;;;;;;5098217;27;20436;-73
2023/08/16 06:03:38;;;;;;;5.35;2.20;;;24.90;99.90;;;;;;5065513;28;20402;-73
2023/08/16 06:06:04;;;;;;;4.75;2.08;;;25.00;99.90;;;;;;5093245;28;20404;-73
2023/08/16 06:08:30;;;;;;;3.58;1.90;;;25.00;99.90;;;;;;5096440;28;20489;-73
2023/08/16 06:10:57;;;;;;;5.18;1.80;;;25.00;99.60;;;;;;5089837;28;20394;-73
2023/08/16 06:13:23;;;;;;;4.03;1.77;;;25.00;98.30;;;;;;5094221;28;20412;-73
2023/08/16 06:15:50;;;;;;;5.50;1.77;;;25.10;97.80;;;;;;5097171;28;20909;-73
2023/08/16 06:18:16;;;;;;;3.95;1.60;;;25.10;96.50;;;;;;5097543;27;20406;-72
2023/08/16 06:20:43;;;;;;;3.85;1.50;;;25.20;96.20;;;;;;5090817;28;20490;-74
2023/08/16 06:23:10;;;;;;;2.95;1.50;;;25.30;95.60;;;;;;5094423;27;20404;-74
2023/08/16 06:25:36;;;;;;;3.47;1.60;;;25.30;94.00;;;;;;5097593;27;22106;-73
2023/08/16 06:28:04;;;;;;;3.45;1.45;;;25.40;94.50;;;;;;5093623;27;20934;-73
2023/08/16 06:30:30;;;;;;;5.30;1.60;;;25.50;94.90;;;;;;5096077;27;20436;-73
2023/08/16 06:32:56;;;;;;;4.22;1.90;;;25.60;94.70;;;;;;5082014;28;20413;-73
2023/08/16 06:35:22;;;;;;;3.45;1.30;;;25.60;94.90;;;;;;5098396;27;20462;-73
2023/08/16 06:37:50;;;;;;;4.28;1.35;;;25.80;92.40;;;;;;5084540;28;20415;-73
2023/08/16 06:40:16;;;;;;;4.55;1.70;;;25.90;90.30;;;;;;5064982;28;20512;-73
2023/08/16 06:42:42;;;;;;;3.25;1.48;;;25.90;93.00;;;;;;5086600;28;20410;-73
2023/08/16 06:45:09;;;;;;;4.25;1.48;;;26.00;93.40;;;;;;5065228;28;20778;-73
2023/08/16 06:47:35;;;;;;;5.35;1.48;;;26.10;92.60;;;;;;5098287;28;20862;-73
2023/08/16 06:50:05;;;;;;;2.53;1.55;;;26.10;91.50;;;;;;5064861;27;20421;-73
2023/08/16 06:52:31;;;;;;;4.27;1.57;;;26.20;92.60;;;;;;5093143;28;20418;-73
2023/08/16 06:54:58;;;;;;;3.33;1.40;;;26.20;91.20;;;;;;5079708;28;20461;-73
2023/08/16 06:57:24;;;;;;;3.95;1.40;;;26.30;91.30;;;;;;5073551;28;20413;-73
2023/08/16 06:59:50;;;;;;;2.38;1.35;;;26.40;90.70;;;;;;5064325;28;20991;-73
2023/08/16 07:02:17;;;;;;;3.75;1.50;;;26.40;90.10;;;;;;5075178;28;21639;-73
2023/08/16 07:04:43;;;;;;;3.92;1.30;;;26.50;91.00;;;;;;5079195;28;20487;-73
2023/08/16 07:07:11;;;;;;;4.13;1.38;;;26.60;89.90;;;;;;5092564;27;20530;-73
2023/08/16 07:09:38;;;;;;;3.27;1.27;;;26.70;87.00;;;;;;5094464;28;20472;-73
2023/08/16 07:12:06;;;;;;;7.57;1.60;;;26.80;87.60;;;;;;5081944;28;20405;-74
2023/08/16 07:14:32;;;;;;;6.18;1.60;;;26.90;90.30;;;;;;5078316;28;21080;-73
2023/08/16 07:16:58;;;;;;;4.40;1.80;;;27.00;92.30;;;;;;5097003;28;20412;-74
2023/08/16 07:19:25;;;;;;;6.88;1.80;;;27.20;92.50;;;;;;5088648;28;20412;-73
2023/08/16 07:21:51;;;;;;;4.97;1.70;;;27.20;92.60;;;;;;5097270;28;20396;-73
2023/08/16 07:24:17;;;;;;;2.55;1.52;;;27.30;92.70;;;;;;5098701;28;20421;-73
2023/08/16 07:26:44;;;;;;;4.95;1.83;;;27.40;91.10;;;;;;5095634;28;20396;-73
2023/08/16 07:29:10;;;;;;;8.05;2.33;;;27.60;91.80;;;;;;5092346;28;21009;-74
2023/08/16 07:31:37;;;;;;;5.05;2.13;;;27.70;92.50;;;;;;5080793;28;20402;-74
2023/08/16 07:34:03;;;;;;;5.88;2.30;;;27.80;92.30;;;;;;5096142;28;20402;-74
2023/08/16 07:36:29;;;;;;;6.45;2.67;;;27.90;92.90;;;;;;5097296;28;20965;-74
2023/08/16 07:38:56;;;;;;;6.63;2.95;;;28.10;94.30;;;;;;5075287;28;20394;-74
2023/08/16 07:41:22;;;;;;;8.75;3.40;;;28.10;96.00;;;;;;5077204;28;20503;-74
2023/08/16 07:43:48;;;;;;;7.82;3.67;;;28.20;98.40;;;;;;5095101;28;20401;-74
2023/08/16 07:46:14;;;;;;;7.18;3.53;;;28.40;98.80;;;;;;5074207;28;20396;-74
2023/08/16 07:48:41;;;;;;;6.72;3.50;;;28.40;99.60;;;;;;5095764;28;20932;-74
2023/08/16 07:51:07;;;;;;;8.95;3.80;;;28.50;98.10;;;;;;5082256;28;20397;-73
2023/08/16 07:53:33;;;;;;;9.90;3.90;;;28.70;99.90;;;;;;5091966;28;20467;-74
2023/08/16 07:55:59;;;;;;;6.47;3.35;;;28.80;99.90;;;;;;5096553;28;20420;-74
2023/08/16 07:58:26;;;;;;;9.52;4.38;;;28.90;99.10;;;;;;5078996;28;20498;-74
2023/08/16 08:00:54;;;;;;;8.33;4.27;;;28.90;99.90;;;;;;5076476;28;20400;-74
2023/08/16 08:03:24;;;;;;;14.50;4.80;;;29.10;99.90;;;;;;5075748;28;20450;-74
2023/08/16 08:05:50;;;;;;;13.32;5.55;;;29.10;99.90;;;;;;5077844;28;20408;-74
2023/08/16 08:08:16;;;;;;;10.68;5.07;;;29.30;99.90;;;;;;5093696;28;20413;-74
2023/08/16 08:10:44;;;;;;;9.65;5.47;;;29.40;99.90;;;;;;5075209;28;20431;-74
2023/08/16 08:13:11;;;;;;;15.20;5.90;;;29.50;99.90;;;;;;5064616;28;20400;-74
2023/08/16 08:15:37;;;;;;;19.05;6.00;;;29.70;99.90;;;;;;5087386;28;20418;-74
2023/08/16 08:18:04;;;;;;;9.55;5.40;;;29.70;99.90;;;;;;5090573;28;20406;-74
2023/08/16 08:20:31;;;;;;;16.23;6.70;;;29.80;99.90;;;;;;5059559;28;20429;-74
2023/08/16 08:22:57;;;;;;;12.73;6.35;;;30.00;99.90;;;;;;5095633;28;20384;-74
2023/08/16 08:25:24;;;;;;;16.35;6.80;;;30.00;99.90;;;;;;5077154;28;20412;-74
2023/08/16 08:27:51;;;;;;;15.15;7.00;;;30.00;99.90;;;;;;5091412;28;20411;-74
2023/08/16 08:30:18;;;;;;;13.07;6.35;;;30.20;99.90;;;;;;5070295;28;21003;-74
2023/08/16 08:32:45;;;;;;;11.67;6.37;;;30.20;99.90;;;;;;5061094;28;20422;-74
2023/08/16 08:35:11;;;;;;;12.88;6.10;;;30.30;99.90;;;;;;5100985;28;20461;-74
2023/08/16 08:37:37;;;;;;;13.18;6.30;;;30.30;99.90;;;;;;5086049;28;20943;-74
2023/08/16 08:40:05;;;;;;;13.10;6.27;;;30.40;99.90;;;;;;5087791;28;20400;-74
2023/08/16 08:42:32;;;;;;;9.07;5.30;;;30.50;99.90;;;;;;5078051;28;20404;-74
2023/08/16 08:45:01;;;;;;;12.07;5.80;;;30.60;99.90;;;;;;5088189;28;20408;-74
2023/08/16 08:47:30;;;;;;;12.95;5.75;;;30.70;99.90;;;;;;5093086;28;20412;-74
2023/08/16 08:49:59;;;;;;;15.00;5.43;;;30.80;99.90;;;;;;5100235;28;20404;-73
2023/08/16 08:52:27;;;;;;;11.75;4.70;;;30.90;99.90;;;;;;5081082;28;20462;-74
2023/08/16 08:54:53;;;;;;;9.38;3.10;;;31.00;99.90;;;;;;5076519;28;20763;-74
2023/08/16 08:57:23;;;;;;;10.48;4.38;;;31.00;97.30;;;;;;5095995;28;20874;-74
2023/08/16 08:59:53;;;;;;;9.25;4.90;;;31.10;99.90;;;;;;5072105;28;20405;-74
2023/08/16 09:02:20;;;;;;;11.25;5.00;;;31.20;99.90;;;;;;5104707;27;20407;-74
2023/08/16 09:04:50;;;;;;;12.25;4.55;;;31.30;99.90;;;;;;5099870;28;20334;-74
2023/08/16 09:07:19;;;;;;;9.38;4.93;;;31.30;99.90;;;;;;5093660;28;20192;-74
2023/08/16 09:09:48;;;;;;;10.85;4.30;;;31.40;99.90;;;;;;5077277;28;20549;-74
2023/08/16 09:12:15;;;;;;;11.43;5.00;;;31.50;99.90;;;;;;5081624;28;20905;-73
2023/08/16 09:14:42;;;;;;;8.18;4.70;;;31.50;99.90;;;;;;5100103;28;20209;-73
2023/08/16 09:17:08;;;;;;;11.05;5.70;;;31.70;99.90;;;;;;5078857;28;20591;-73
2023/08/16 09:19:46;;;;;;;11.48;5.60;;;31.80;99.90;;;;;;5078396;28;20181;-73
2023/08/16 09:22:12;;;;;;;9.45;5.63;;;31.90;99.90;;;;;;5085232;28;20193;-73
2023/08/16 09:24:43;;;;;;;12.50;6.35;;;32.00;99.90;;;;;;5101157;28;20201;-73
2023/08/16 09:27:10;;;;;;;10.95;5.90;;;32.00;99.90;;;;;;5070893;28;20262;-73
2023/08/16 09:29:41;;;;;;;10.55;6.20;;;32.10;99.90;;;;;;5063110;28;20542;-73
2023/08/16 09:32:09;;;;;;;10.02;6.20;;;32.20;99.90;;;;;;5099088;28;20277;-74
2023/08/16 09:34:39;;;;;;;13.98;6.65;;;32.20;99.90;;;;;;5078000;28;20410;-73
2023/08/16 09:37:05;;;;;;;13.00;7.18;;;32.20;99.90;;;;;;5067344;28;20201;-73
2023/08/16 09:39:32;;;;;;;14.57;7.75;;;32.40;99.90;;;;;;5072269;28;20186;-73
2023/08/16 09:41:59;;;;;;;18.45;7.80;;;32.50;99.90;;;;;;5095019;28;20727;-73
2023/08/16 09:44:32;;;;;;;12.20;7.03;;;32.50;99.90;;;;;;5081198;28;20950;-73
2023/08/16 09:46:59;;;;;;;13.35;6.75;;;32.60;99.90;;;;;;5101028;28;20183;-73
2023/08/16 09:49:25;;;;;;;12.73;6.70;;;32.60;99.90;;;;;;5078931;28;20196;-74
2023/08/16 09:51:52;;;;;;;17.35;7.20;;;32.60;99.90;;;;;;5059475;28;20548;-74
2023/08/16 09:54:18;;;;;;;12.73;8.02;;;32.70;99.90;;;;;;5062668;28;20647;-73
2023/08/16 09:56:45;;;;;;;15.35;7.07;;;32.80;99.90;;;;;;5076284;28;20189;-73
2023/08/16 09:59:12;;;;;;;15.00;6.88;;;32.90;99.90;;;;;;5080938;28;20182;-73
2023/08/16 10:01:40;;;;;;;12.40;5.65;;;32.90;99.90;;;;;;5085602;28;20655;-74
2023/08/16 10:04:08;;;;;;;15.43;5.80;;;32.90;99.90;;;;;;5079282;28;20238;-73
2023/08/16 10:06:36;;;;;;;12.85;6.00;;;32.90;99.90;;;;;;5074961;28;20221;-74
2023/08/16 10:09:04;;;;;;;14.38;6.63;;;33.00;99.90;;;;;;5092919;28;20173;-74
2023/08/16 10:11:33;;;;;;;11.05;6.05;;;33.10;99.90;;;;;;5085746;28;20262;-74
2023/08/16 10:14:02;;;;;;;16.45;6.75;;;33.10;99.90;;;;;;5079045;28;20732;-73
2023/08/16 10:16:33;;;;;;;12.55;7.07;;;33.10;99.90;;;;;;5071498;28;20185;-73
2023/08/16 10:19:02;;;;;;;17.50;6.43;;;33.20;99.90;;;;;;5093773;28;20311;-73
2023/08/16 10:21:33;;;;;;;11.35;5.90;;;33.20;99.90;;;;;;5095580;28;20509;-73
2023/08/16 10:24:02;;;;;;;15.87;7.50;;;33.20;99.90;;;;;;5091781;28;20412;-74
2023/08/16 10:26:32;;;;;;;14.02;7.28;;;33.30;99.90;;;;;;5067681;28;20396;-74
2023/08/16 10:29:07;;;;;;;12.13;6.82;;;33.30;99.90;;;;;;5096441;28;20413;-74
2023/08/16 10:31:42;;;;;;;17.03;7.73;;;33.30;99.90;;;;;;5084153;28;20388;-74
2023/08/16 10:34:14;;;;;;;16.88;7.95;;;33.30;99.90;;;;;;5093318;28;20782;-74
2023/08/16 10:36:41;;;;;;;15.73;8.15;;;33.30;99.90;;;;;;5077434;28;20408;-74
2023/08/16 10:39:08;;;;;;;13.95;7.80;;;33.30;99.90;;;;;;5093247;28;20461;-74
2023/08/16 10:41:41;;;;;;;13.40;7.72;;;33.30;99.90;;;;;;5071574;28;20421;-74
2023/08/16 10:44:11;;;;;;;13.93;7.80;;;33.30;99.90;;;;;;5097053;27;20483;-74
2023/08/16 10:46:43;;;;;;;14.80;8.35;;;33.30;99.90;;;;;;5087559;28;20398;-73
2023/08/16 10:49:10;;;;;;;18.73;9.33;;;33.30;99.90;;;;;;5096195;28;20892;-74
2023/08/16 10:51:51;;;;;;;18.05;8.25;;;33.30;99.90;;;;;;5092752;28;20461;-74
2023/08/16 10:54:19;;;;;;;15.95;8.38;;;33.30;99.90;;;;;;5062405;28;20845;-74
2023/08/16 10:56:50;;;;;;;16.25;7.75;;;33.20;99.90;;;;;;5090307;28;20419;-74
2023/08/16 10:59:17;;;;;;;16.63;9.07;;;33.20;99.90;;;;;;5092167;28;20472;-74
2023/08/16 11:01:52;;;;;;;16.13;8.10;;;33.20;99.90;;;;;;5084031;28;20397;-74
2023/08/16 11:04:19;;;;;;;16.60;8.45;;;33.20;99.90;;;;;;5093560;28;20431;-74
2023/08/16 11:06:46;;;;;;;18.17;8.77;;;33.20;99.90;;;;;;5066956;28;20432;-74
2023/08/16 11:09:13;;;;;;;14.07;8.45;;;33.10;99.90;;;;;;5078614;28;20435;-74
2023/08/16 11:11:46;;;;;;;14.57;8.25;;;33.10;99.90;;;;;;5082661;28;20510;-73
2023/08/16 11:14:13;;;;;;;18.77;9.13;;;33.10;99.90;;;;;;5076437;28;20465;-74
2023/08/16 11:16:39;;;;;;;17.15;9.02;;;33.00;99.90;;;;;;5083637;28;20402;-74
2023/08/16 11:19:06;;;;;;;17.75;9.30;;;33.00;99.90;;;;;;5069227;28;20409;-74
2023/08/16 11:21:34;;;;;;;16.37;9.00;;;33.00;99.90;;;;;;5076487;28;20404;-74
2023/08/16 11:24:02;;;;;;;17.00;10.02;;;33.00;99.90;;;;;;5080941;28;20491;-74
2023/08/16 11:26:38;;;;;;;15.53;9.67;;;33.00;99.90;;;;;;5060442;28;20410;-74
2023/08/16 11:29:05;;;;;;;14.63;8.57;;;33.00;99.90;;;;;;5079631;28;20512;-74
2023/08/16 11:31:34;;;;;;;16.63;8.93;;;32.90;99.90;;;;;;5101761;28;20404;-74
2023/08/16 11:34:10;;;;;;;15.70;9.33;;;32.90;99.90;;;;;;5083994;28;20422;-74
2023/08/16 11:36:38;;;;;;;14.88;9.02;;;32.80;99.90;;;;;;5080923;28;20495;-73
2023/08/16 11:39:04;;;;;;;16.17;9.13;;;32.80;99.90;;;;;;5083006;28;20478;-74
2023/08/16 11:41:31;;;;;;;16.35;9.55;;;32.80;99.90;;;;;;5092632;28;20517;-74
2023/08/16 11:43:59;;;;;;;15.02;8.88;;;32.80;99.90;;;;;;5095438;28;20396;-73
2023/08/16 11:46:26;;;;;;;16.27;9.27;;;32.80;99.90;;;;;;5086226;28;20927;-73
2023/08/16 11:48:54;;;;;;;16.65;8.63;;;32.70;99.90;;;;;;5087043;28;20483;-73
2023/08/16 11:51:20;;;;;;;15.95;9.15;;;32.70;99.90;;;;;;5094174;28;20387;-74
2023/08/16 11:53:47;;;;;;;17.40;9.70;;;32.70;99.90;;;;;;5098905;28;20402;-74
2023/08/16 11:56:13;;;;;;;15.02;8.82;;;32.70;99.90;;;;;;5075831;28;20440;-74
2023/08/16 11:58:48;;;;;;;15.10;8.70;;;32.60;99.90;;;;;;5076958;28;20396;-74
2023/08/16 12:01:16;;;;;;;16.85;9.20;;;32.50;99.90;;;;;;5080112;28;20918;-74
2023/08/16 12:03:46;;;;;;;17.73;9.15;;;32.50;99.90;;;;;;5065381;28;20407;-74
2023/08/16 12:06:13;;;;;;;16.90;9.07;;;32.40;99.90;;;;;;5068894;28;20396;-73
2023/08/16 12:08:51;;;;;;;14.25;8.48;;;32.40;99.90;;;;;;5058120;28;20894;-73
2023/08/16 12:11:52;;;;;;;15.48;8.80;;;32.40;99.90;;;;;;5080818;28;20436;-73
2023/08/16 12:14:19;;;;;;;17.08;9.05;;;32.40;99.90;;;;;;5074812;28;20435;-74
2023/08/16 12:16:45;;;;;;;17.27;8.80;;;32.40;99.90;;;;;;5075905;28;20420;-74
2023/08/16 12:19:19;;;;;;;16.42;8.70;;;32.40;99.90;;;;;;5067425;28;20821;-74
2023/08/16 12:21:46;;;;;;;13.98;8.18;;;32.40;99.90;;;;;;5095250;27;20543;-74
2023/08/16 12:24:12;;;;;;;15.20;8.30;;;32.40;99.90;;;;;;5094672;28;20406;-74
2023/08/16 12:26:38;;;;;;;14.30;8.13;;;32.40;99.90;;;;;;5078227;28;20438;-74
2023/08/16 12:29:05;;;;;;;15.20;7.80;;;32.40;99.90;;;;;;5097280;27;20487;-74
2023/08/16 12:31:31;;;;;;;11.70;7.95;;;32.40;99.90;;;;;;5103941;27;20774;-74
2023/08/16 12:33:57;;;;;;;14.18;8.15;;;32.40;99.90;;;;;;5081114;27;20470;-74
2023/08/16 12:36:24;;;;;;;14.50;8.48;;;32.50;99.90;;;;;;5091637;28;20412;-74
2023/08/16 12:38:50;;;;;;;16.30;8.95;;;32.50;99.90;;;;;;5085476;28;20452;-74
2023/08/16 12:41:17;;;;;;;15.93;9.27;;;32.50;99.90;;;;;;5077792;28;20805;-74
2023/08/16 12:43:43;;;;;;;14.15;8.70;;;32.50;99.90;;;;;;5101369;28;20422;-74
2023/08/16 12:46:09;;;;;;;17.53;8.47;;;32.50;99.90;;;;;;5091853;27;20414;-74